Time;durP1;ratioP1;P1;durP2;ratioP2;P2;SDS_P1;SDS_P2;PMS_P1;PMS_P2;Temp;Humidity;BMP_temperature;BMP_pressure;BME280_temperature;BME280_humidity;BME280_pressure;Samples;Min_cycle;Max_cycle;Signal;HPM_P1;HPM_P2
2023/10/09 00:01:13;;;;;;;0.80;0.50;;;;;;;12.76;79.22;101714.78;5031424;28;20891;-70
2023/10/09 00:03:42;;;;;;;0.80;0.40;;;;;;;12.80;81.77;101700.63;5027268;28;20456;-67
2023/10/09 00:06:13;;;;;;;0.80;0.50;;;;;;;12.70;82.10;101700.13;5035790;28;20398;-68
2023/10/09 00:08:44;;;;;;;0.80;0.50;;;;;;;12.76;80.68;101698.50;5030881;28;20410;-69
2023/10/09 00:11:17;;;;;;;0.90;0.63;;;;;;;12.64;80.95;101706.31;5031740;28;21132;-70
2023/10/09 00:13:52;;;;;;;0.80;0.40;;;;;;;12.59;81.54;101695.22;5029382;28;20403;-68
2023/10/09 00:16:34;;;;;;;0.80;0.50;;;;;;;12.73;82.66;101693.47;5038718;28;20408;-68
2023/10/09 00:19:14;;;;;;;0.80;0.40;;;;;;;12.85;82.53;101691.88;5029437;28;20451;-68
2023/10/09 00:21:43;;;;;;;0.80;0.40;;;;;;;12.67;85.07;101694.25;5032245;28;20535;-70
2023/10/09 00:24:23;;;;;;;0.83;0.47;;;;;;;12.57;83.05;101681.84;5037275;28;20456;-71
2023/10/09 00:26:55;;;;;;;0.80;0.40;;;;;;;12.82;82.36;101673.25;5030626;28;20398;-69
2023/10/09 00:29:34;;;;;;;0.80;0.50;;;;;;;12.75;83.66;101664.22;5038792;28;20515;-68
2023/10/09 00:32:13;;;;;;;0.80;0.50;;;;;;;12.31;89.31;101659.88;5031913;28;20438;-70
2023/10/09 00:34:42;;;;;;;0.80;0.40;;;;;;;12.31;91.25;101662.59;5031073;28;20420;-70
2023/10/09 00:37:16;;;;;;;0.80;0.50;;;;;;;12.43;91.99;101661.06;5034577;28;20401;-68
2023/10/09 00:39:48;;;;;;;0.80;0.40;;;;;;;12.32;94.44;101644.44;5030377;28;20467;-69
2023/10/09 00:42:27;;;;;;;0.90;0.70;;;;;;;12.19;94.52;101640.59;5038620;28;20521;-69
2023/10/09 00:45:02;;;;;;;0.90;0.53;;;;;;;12.31;94.79;101632.75;5030036;28;20807;-68
2023/10/09 00:47:35;;;;;;;0.80;0.50;;;;;;;12.36;95.88;101638.44;5027681;28;20402;-70
2023/10/09 00:50:21;;;;;;;0.80;0.50;;;;;;;12.35;93.52;101639.47;5034269;28;20391;-68
2023/10/09 00:53:01;;;;;;;0.80;0.40;;;;;;;12.36;96.07;101629.44;5029724;28;20893;-70
2023/10/09 00:55:38;;;;;;;0.80;0.50;;;;;;;12.24;97.24;101621.00;5081438;27;20428;-69
2023/10/09 00:58:12;;;;;;;0.80;0.50;;;;;;;11.94;100.00;101612.16;5028919;28;20817;-70
2023/10/09 01:00:52;;;;;;;0.80;0.40;;;;;;;11.96;100.00;101615.50;5033745;28;20464;-68
2023/10/09 01:03:22;;;;;;;0.80;0.50;;;;;;;12.10;100.00;101616.50;5032528;28;20443;-70
2023/10/09 01:05:52;;;;;;;0.80;0.40;;;;;;;12.35;97.68;101606.88;5038072;28;20466;-70
2023/10/09 01:08:29;;;;;;;0.80;0.50;;;;;;;12.10;100.00;101611.88;5031756;28;20432;-70
2023/10/09 01:11:08;;;;;;;0.80;0.40;;;;;;;12.05;100.00;101591.84;5111308;27;20982;-69
2023/10/09 01:13:52;;;;;;;0.80;0.50;;;;;;;12.04;100.00;101591.00;5029907;28;20410;-70
2023/10/09 01:16:24;;;;;;;0.80;0.50;;;;;;;12.00;100.00;101580.72;5029016;28;20420;-69
2023/10/09 01:18:57;;;;;;;0.80;0.40;;;;;;;11.91;98.01;101574.56;5097556;28;20831;-70
2023/10/09 01:21:26;;;;;;;0.80;0.50;;;;;;;11.76;100.00;101574.63;5098238;28;20750;-71
2023/10/09 01:24:04;;;;;;;0.80;0.50;;;;;;;11.58;100.00;101557.94;5026626;28;20414;-70
2023/10/09 01:26:39;;;;;;;0.80;0.40;;;;;;;11.64;100.00;101549.06;5095277;28;20853;-68
2023/10/09 01:29:14;;;;;;;0.80;0.47;;;;;;;11.61;100.00;101546.75;5030074;28;20432;-69
2023/10/09 01:31:51;;;;;;;0.80;0.47;;;;;;;11.72;100.00;101535.38;5027735;28;20817;-68
2023/10/09 01:34:23;;;;;;;0.80;0.40;;;;;;;11.54;100.00;101523.28;5035523;28;20442;-67
2023/10/09 01:36:55;;;;;;;0.80;0.50;;;;;;;11.60;100.00;101517.09;5084420;27;20929;-69
2023/10/09 01:39:28;;;;;;;0.80;0.50;;;;;;;11.32;100.00;101498.91;5029477;28;20505;-70
2023/10/09 01:42:00;;;;;;;0.80;0.60;;;;;;;11.20;100.00;101495.00;5075871;28;20480;-69
2023/10/09 01:44:34;;;;;;;0.80;0.40;;;;;;;11.45;100.00;101476.50;5029437;28;20576;-70
2023/10/09 01:47:07;;;;;;;0.80;0.60;;;;;;;11.49;100.00;101466.94;5063936;27;20443;-68
2023/10/09 01:49:37;;;;;;;0.80;0.40;;;;;;;11.34;100.00;101452.63;5025918;28;20395;-69
2023/10/09 01:52:09;;;;;;;0.80;0.40;;;;;;;11.21;100.00;101458.75;5027145;28;20406;-69
2023/10/09 01:54:40;;;;;;;0.80;0.40;;;;;;;10.97;100.00;101453.72;5111790;27;20430;-68
2023/10/09 01:57:12;;;;;;;1.07;0.50;;;;;;;11.21;100.00;101453.34;5033101;28;20855;-67
2023/10/09 01:59:44;;;;;;;0.80;0.40;;;;;;;11.34;100.00;101466.19;5031029;28;20932;-71
2023/10/09 02:02:25;;;;;;;0.80;0.50;;;;;;;11.40;100.00;101457.28;5027350;28;20507;-70
2023/10/09 02:05:04;;;;;;;0.80;0.40;;;;;;;11.47;100.00;101439.22;5096966;27;20427;-69
2023/10/09 02:07:40;;;;;;;0.80;0.40;;;;;;;11.43;100.00;101426.22;5097197;28;20466;-70
2023/10/09 02:10:21;;;;;;;0.80;0.50;;;;;;;11.84;100.00;101443.50;5025320;28;20431;-68
2023/10/09 02:12:57;;;;;;;0.80;0.40;;;;;;;12.15;100.00;101452.06;5028618;28;20451;-68
2023/10/09 02:18:18;;;;;;;0.80;0.40;;;;;;;11.91;100.00;101444.38;5027801;28;20419;-70
2023/10/09 02:20:55;;;;;;;0.80;0.40;;;;;;;12.19;100.00;101463.38;5027882;28;20471;-70
2023/10/09 02:23:30;;;;;;;0.80;0.50;;;;;;;12.40;100.00;101440.72;5090999;28;20459;-69
2023/10/09 02:26:05;;;;;;;0.80;0.40;;;;;;;12.29;100.00;101431.31;5030502;28;20916;-70
2023/10/09 02:28:34;;;;;;;0.80;0.40;;;;;;;12.00;100.00;101435.09;5034274;28;20791;-67
2023/10/09 02:31:12;;;;;;;0.80;0.50;;;;;;;12.22;100.00;101449.41;5032739;28;20474;-70
2023/10/09 02:33:41;;;;;;;0.80;0.40;;;;;;;11.92;100.00;101445.22;5095332;28;20414;-69
2023/10/09 02:36:12;;;;;;;0.80;0.40;;;;;;;11.77;100.00;101454.28;5032743;28;20867;-70
2023/10/09 02:38:43;;;;;;;0.80;0.40;;;;;;;12.02;100.00;101462.00;5033995;28;20452;-68
2023/10/09 02:41:20;;;;;;;0.80;0.40;;;;;;;12.27;100.00;101456.94;5091942;27;20504;-70
2023/10/09 02:43:50;;;;;;;0.80;0.40;;;;;;;12.59;99.85;101451.69;5034825;28;20756;-69
2023/10/09 02:46:21;;;;;;;0.80;0.50;;;;;;;12.34;100.00;101428.81;5035867;28;20453;-70
2023/10/09 02:48:51;;;;;;;0.80;0.50;;;;;;;12.34;100.00;101415.25;5035252;28;20422;-69
2023/10/09 02:51:32;;;;;;;1.17;0.63;;;;;;;12.07;100.00;101408.81;5091383;28;20456;-70
2023/10/09 02:54:17;;;;;;;0.80;0.50;;;;;;;11.60;100.00;101398.66;5034085;28;20455;-70
2023/10/09 02:56:55;;;;;;;0.80;0.50;;;;;;;11.30;100.00;101402.56;5118648;27;20439;-69
2023/10/09 02:59:25;;;;;;;0.80;0.47;;;;;;;11.51;100.00;101402.56;5032904;28;20430;-71
2023/10/09 03:01:54;;;;;;;0.80;0.50;;;;;;;11.82;100.00;101395.91;5102699;28;20488;-71
2023/10/09 03:04:23;;;;;;;0.80;0.50;;;;;;;12.02;100.00;101396.88;5033698;28;20824;-70
2023/10/09 03:06:57;;;;;;;0.80;0.40;;;;;;;12.05;100.00;101382.94;5095109;27;20418;-71
2023/10/09 03:09:30;;;;;;;0.80;0.40;;;;;;;11.90;100.00;101387.66;5032760;28;20505;-71
2023/10/09 03:12:03;;;;;;;0.80;0.40;;;;;;;11.39;100.00;101379.72;5108618;27;20474;-71
2023/10/09 03:14:35;;;;;;;0.80;0.40;;;;;;;11.24;100.00;101373.53;5034478;28;20432;-70
2023/10/09 03:17:04;;;;;;;0.80;0.50;;;;;;;11.36;100.00;101369.28;5032493;28;20946;-70
2023/10/09 03:19:37;;;;;;;0.80;0.50;;;;;;;11.58;100.00;101357.34;5029086;28;20466;-71
2023/10/09 03:22:09;;;;;;;0.80;0.40;;;;;;;11.49;100.00;101347.69;5027096;28;20503;-70
2023/10/09 03:24:41;;;;;;;0.80;0.50;;;;;;;11.53;100.00;101342.72;5090919;27;20480;-71
2023/10/09 03:27:13;;;;;;;0.80;0.50;;;;;;;11.42;100.00;101344.13;5031998;28;20428;-70
2023/10/09 03:29:48;;;;;;;0.80;0.40;;;;;;;11.43;100.00;101337.63;5026778;28;20444;-70
2023/10/09 03:32:19;;;;;;;0.80;0.50;;;;;;;11.56;100.00;101326.06;5027851;28;20440;-68
2023/10/09 03:34:51;;;;;;;0.80;0.40;;;;;;;11.44;100.00;101323.06;5032952;28;20631;-70
2023/10/09 03:37:33;;;;;;;0.80;0.40;;;;;;;11.58;100.00;101313.13;5031494;28;20426;-70
2023/10/09 03:40:03;;;;;;;0.80;0.40;;;;;;;11.45;100.00;101308.47;5026909;28;20395;-70
2023/10/09 03:42:36;;;;;;;0.80;0.40;;;;;;;11.44;100.00;101290.53;5030997;28;20453;-69
2023/10/09 03:45:12;;;;;;;0.80;0.50;;;;;;;11.45;100.00;101281.38;5037535;28;20428;-71
2023/10/09 03:47:48;;;;;;;0.80;0.50;;;;;;;11.62;100.00;101266.47;5031082;28;20435;-72
2023/10/09 03:50:26;;;;;;;0.80;0.50;;;;;;;11.58;100.00;101262.47;5031471;28;20432;-70
2023/10/09 03:52:55;;;;;;;0.80;0.50;;;;;;;11.63;100.00;101253.75;5032298;28;20498;-69
2023/10/09 03:55:27;;;;;;;0.80;0.47;;;;;;;11.56;100.00;101267.28;5047406;28;20471;-69
2023/10/09 03:57:59;;;;;;;0.80;0.40;;;;;;;11.25;100.00;101277.69;5031245;28;20918;-71
2023/10/09 04:00:31;;;;;;;0.80;0.50;;;;;;;11.24;100.00;101276.00;5030839;28;20458;-71
2023/10/09 04:03:01;;;;;;;0.80;0.50;;;;;;;11.27;100.00;101275.63;5026067;28;20441;-70
2023/10/09 04:05:30;;;;;;;0.80;0.40;;;;;;;11.00;100.00;101281.84;5028614;28;20972;-70
2023/10/09 04:08:01;;;;;;;0.80;0.50;;;;;;;10.73;100.00;101308.69;5029171;28;20428;-71
2023/10/09 04:10:51;;;;;;;0.80;0.50;;;;;;;10.51;100.00;101325.94;5030302;28;20448;-70
2023/10/09 04:13:33;;;;;;;0.80;0.50;;;;;;;10.36;100.00;101317.88;5024524;28;20425;-71
2023/10/09 04:16:10;;;;;;;1.33;1.23;;;;;;;10.28;100.00;101317.13;5025053;28;20428;-71
2023/10/09 04:18:41;;;;;;;0.80;0.50;;;;;;;10.32;100.00;101316.56;5030542;28;20472;-70
2023/10/09 04:21:18;;;;;;;0.80;0.40;;;;;;;10.19;100.00;101305.59;5027157;28;20448;-70
2023/10/09 04:24:09;;;;;;;0.80;0.50;;;;;;;10.03;100.00;101293.09;5029777;28;20434;-69
2023/10/09 04:26:44;;;;;;;0.80;0.50;;;;;;;10.09;100.00;101271.72;5030610;28;20440;-70
2023/10/09 04:29:18;;;;;;;1.10;0.73;;;;;;;9.91;100.00;101269.44;5031283;28;20535;-70
2023/10/09 04:31:51;;;;;;;0.80;0.40;;;;;;;10.02;100.00;101256.25;5029435;28;20857;-69
2023/10/09 04:34:23;;;;;;;0.80;0.50;;;;;;;10.38;100.00;101275.22;5031397;28;20843;-70
2023/10/09 04:36:56;;;;;;;0.80;0.47;;;;;;;10.09;100.00;101277.13;5030793;28;20540;-71
2023/10/09 04:42:26;;;;;;;0.80;0.50;;;;;;;10.55;100.00;101283.97;5019792;28;20458;-70
2023/10/09 04:47:57;;;;;;;1.00;0.73;;;;;;;10.50;100.00;101281.00;5012734;28;20434;-70
2023/10/09 04:53:25;;;;;;;0.80;0.40;;;;;;;10.41;100.00;101282.97;5026168;28;20435;-69
2023/10/09 04:55:57;;;;;;;0.80;0.50;;;;;;;10.67;100.00;101274.28;5023969;28;20787;-69
2023/10/09 04:58:27;;;;;;;0.80;0.50;;;;;;;10.80;100.00;101271.69;5040543;28;20473;-68
2023/10/09 05:01:12;;;;;;;0.80;0.50;;;;;;;10.54;100.00;101266.03;5030183;28;20425;-69
2023/10/09 05:03:45;;;;;;;0.80;0.50;;;;;;;10.86;100.00;101260.09;5029873;28;20442;-70
2023/10/09 05:09:08;;;;;;;0.80;0.40;;;;;;;10.37;100.00;101248.38;5031421;28;21045;-68
2023/10/09 05:14:37;;;;;;;0.80;0.50;;;;;;;10.06;100.00;101251.34;5033292;28;20452;-70
2023/10/09 05:17:15;;;;;;;0.80;0.50;;;;;;;10.11;100.00;101254.31;5025561;28;20527;-72
2023/10/09 05:20:40;;;;;;;0.80;0.40;;;;;;;10.21;100.00;101246.75;5030862;28;20448;-70
2023/10/09 05:22:56;;;;;;;0.80;0.50;;;;;;;10.29;100.00;101240.38;5067221;28;20914;-70
2023/10/09 05:31:06;;;;;;;0.80;0.40;;;;;;;10.18;100.00;101252.53;5031475;28;20444;-69
2023/10/09 05:33:36;;;;;;;0.80;0.50;;;;;;;10.02;100.00;101250.03;5049115;28;20424;-68
2023/10/09 05:36:31;;;;;;;0.80;0.50;;;;;;;9.90;100.00;101246.97;5030440;28;20431;-69
2023/10/09 05:39:16;;;;;;;0.80;0.50;;;;;;;9.86;100.00;101244.84;5027744;28;20451;-69
2023/10/09 05:41:52;;;;;;;0.90;0.50;;;;;;;9.84;100.00;101241.47;5097272;28;20467;-69
2023/10/09 06:04:12;;;;;;;0.80;0.40;;;;;;;9.82;100.00;101247.09;5027007;28;20476;-67
2023/10/09 06:06:45;;;;;;;0.80;0.40;;;;;;;9.97;100.00;101247.88;5035947;28;20555;-69
2023/10/09 06:17:50;;;;;;;0.80;0.50;;;;;;;10.07;100.00;101238.66;5029079;28;20527;-68
2023/10/09 06:23:16;;;;;;;0.80;0.40;;;;;;;10.10;100.00;101233.69;5019045;28;20680;-69
2023/10/09 06:25:51;;;;;;;0.80;0.50;;;;;;;10.19;100.00;101231.75;5027962;28;20443;-69
2023/10/09 06:28:32;;;;;;;0.80;0.40;;;;;;;10.20;100.00;101223.44;5025890;28;20558;-68
2023/10/09 06:31:27;;;;;;;0.80;0.50;;;;;;;10.21;100.00;101227.81;5024992;28;20277;-69
2023/10/09 06:34:08;;;;;;;0.80;0.50;;;;;;;10.33;100.00;101228.13;5041899;28;20875;-68
2023/10/09 06:36:46;;;;;;;0.80;0.50;;;;;;;10.39;100.00;101224.66;5025867;28;20428;-69
2023/10/09 06:42:30;;;;;;;0.80;0.50;;;;;;;10.59;100.00;101230.28;5028119;28;20456;-69
2023/10/09 06:45:00;;;;;;;0.80;0.50;;;;;;;10.55;100.00;101226.28;5022457;28;20443;-69
2023/10/09 06:47:40;;;;;;;0.80;0.50;;;;;;;10.69;100.00;101228.94;5027724;28;20424;-70
2023/10/09 06:50:25;;;;;;;0.80;0.50;;;;;;;10.59;100.00;101227.56;5027487;28;20463;-68
2023/10/09 06:53:18;;;;;;;0.90;0.50;;;;;;;10.70;100.00;101218.91;5026101;28;21013;-69
2023/10/09 06:56:05;;;;;;;0.80;0.60;;;;;;;10.65;100.00;101205.97;5027103;28;20818;-68
2023/10/09 06:58:42;;;;;;;0.80;0.47;;;;;;;10.69;100.00;101201.00;5033116;28;20959;-69
2023/10/09 07:01:25;;;;;;;0.80;0.50;;;;;;;10.72;100.00;101198.75;5022154;28;20513;-68
2023/10/09 07:03:54;;;;;;;0.80;0.50;;;;;;;10.75;100.00;101203.75;5026016;28;20483;-69
2023/10/09 07:06:24;;;;;;;0.80;0.50;;;;;;;10.96;100.00;101188.50;5026584;28;20499;-68
2023/10/09 07:09:15;;;;;;;0.80;0.40;;;;;;;11.09;100.00;101199.44;5026936;28;20417;-68
2023/10/09 07:12:03;;;;;;;0.80;0.40;;;;;;;11.19;100.00;101202.63;5025440;28;20483;-67
2023/10/09 07:15:01;;;;;;;0.80;0.40;;;;;;;11.02;100.00;101206.69;5040765;28;20456;-68
2023/10/09 07:17:43;;;;;;;0.80;0.40;;;;;;;11.21;100.00;101208.69;5034626;28;20995;-69
2023/10/09 07:20:15;;;;;;;0.80;0.50;;;;;;;11.33;100.00;101201.66;5025657;28;20457;-69
2023/10/09 07:23:13;;;;;;;0.80;0.40;;;;;;;11.25;100.00;101204.53;5032251;28;20438;-69
2023/10/09 07:25:54;;;;;;;0.80;0.50;;;;;;;11.35;100.00;101196.91;5028228;28;20439;-69
2023/10/09 07:28:42;;;;;;;0.80;0.40;;;;;;;11.39;100.00;101198.16;5028488;28;20538;-69
2023/10/09 07:31:39;;;;;;;0.80;0.43;;;;;;;11.48;100.00;101204.25;5026254;28;21036;-68
2023/10/09 07:36:56;;;;;;;2.73;0.70;;;;;;;11.56;100.00;101207.66;5034674;28;20754;-68
2023/10/09 07:39:34;;;;;;;0.80;0.43;;;;;;;11.56;100.00;101206.81;5100901;27;20444;-70
2023/10/09 07:44:57;;;;;;;0.80;0.40;;;;;;;11.51;100.00;101215.53;5032306;28;20500;-69
2023/10/09 07:48:00;;;;;;;0.80;0.50;;;;;;;11.56;100.00;101212.22;5029129;28;20463;-69
2023/10/09 07:50:40;;;;;;;0.80;0.50;;;;;;;11.51;100.00;101220.97;5028549;28;20787;-68
2023/10/09 07:53:17;;;;;;;0.80;0.50;;;;;;;11.39;100.00;101216.28;5029597;28;20829;-67
2023/10/09 07:55:54;;;;;;;0.80;0.40;;;;;;;11.44;100.00;101225.50;5043259;28;20419;-70
2023/10/09 07:58:25;;;;;;;0.80;0.50;;;;;;;11.47;100.00;101219.69;5099387;27;20450;-69
2023/10/09 08:03:40;;;;;;;0.80;0.50;;;;;;;11.74;100.00;101240.50;5032263;28;20818;-67
2023/10/09 08:11:59;;;;;;;0.80;0.43;;;;;;;11.51;100.00;101253.50;5031183;28;20475;-70
2023/10/09 08:14:42;;;;;;;0.80;0.40;;;;;;;11.41;100.00;101269.25;5031545;28;20433;-69
2023/10/09 08:17:15;;;;;;;0.80;0.50;;;;;;;11.15;100.00;101263.66;5029091;28;20913;-68
2023/10/09 08:19:57;;;;;;;0.80;0.50;;;;;;;11.11;100.00;101268.63;5028632;28;20463;-69
2023/10/09 08:22:42;;;;;;;0.80;0.40;;;;;;;11.20;100.00;101264.75;5047135;28;20434;-70
2023/10/09 08:25:26;;;;;;;0.90;0.60;;;;;;;11.21;100.00;101266.41;5031429;28;20434;-70
2023/10/09 08:27:58;;;;;;;0.80;0.50;;;;;;;11.28;100.00;101263.72;5028391;28;20481;-70
2023/10/09 08:30:40;;;;;;;0.80;0.40;;;;;;;11.32;100.00;101255.03;5021751;28;20399;-70
2023/10/09 08:33:40;;;;;;;0.80;0.40;;;;;;;11.52;100.00;101252.44;5028522;28;20452;-70
2023/10/09 08:36:14;;;;;;;0.80;0.50;;;;;;;11.50;100.00;101262.66;5029317;28;20879;-69
2023/10/09 08:38:44;;;;;;;0.80;0.50;;;;;;;11.45;100.00;101261.56;5031415;28;20439;-71
2023/10/09 08:41:17;;;;;;;0.80;0.50;;;;;;;11.54;100.00;101263.91;5030198;28;20418;-69
2023/10/09 08:43:51;;;;;;;0.80;0.40;;;;;;;11.39;100.00;101259.66;5027377;28;20466;-70
2023/10/09 08:46:26;;;;;;;0.80;0.40;;;;;;;11.42;100.00;101256.56;5018837;28;20953;-70
2023/10/09 08:48:59;;;;;;;0.80;0.40;;;;;;;11.44;100.00;101260.72;5097238;28;20437;-70
2023/10/09 08:51:29;;;;;;;0.80;0.40;;;;;;;11.60;100.00;101254.16;5029197;28;20433;-68
2023/10/09 08:53:58;;;;;;;0.80;0.40;;;;;;;11.56;100.00;101253.72;5028874;28;20468;-70
2023/10/09 08:56:27;;;;;;;0.80;0.40;;;;;;;11.64;100.00;101240.00;5029592;28;20523;-70
2023/10/09 08:58:59;;;;;;;0.80;0.40;;;;;;;11.63;100.00;101238.31;5025732;28;20407;-70
2023/10/09 09:01:31;;;;;;;2.00;1.90;;;;;;;11.60;100.00;101233.31;5026179;28;20451;-70
2023/10/09 09:04:02;;;;;;;0.90;0.70;;;;;;;11.65;100.00;101233.53;5027826;28;20438;-69
2023/10/09 09:06:41;;;;;;;0.80;0.50;;;;;;;11.84;100.00;101236.56;5029287;28;20441;-68
2023/10/09 09:09:15;;;;;;;1.47;1.07;;;;;;;11.92;100.00;101241.81;5094388;28;20446;-68
2023/10/09 09:11:49;;;;;;;0.80;0.40;;;;;;;11.91;100.00;101248.31;5030886;28;21069;-68
2023/10/09 09:14:21;;;;;;;0.80;0.50;;;;;;;11.92;100.00;101241.81;5023306;28;20417;-70
2023/10/09 09:16:52;;;;;;;1.07;0.97;;;;;;;11.85;100.00;101239.09;5037416;28;20445;-70
2023/10/09 09:19:36;;;;;;;0.80;0.50;;;;;;;12.10;100.00;101236.69;5025582;28;20536;-70
2023/10/09 09:22:12;;;;;;;0.80;0.43;;;;;;;12.12;100.00;101219.16;5028942;28;20440;-71
2023/10/09 09:25:00;;;;;;;0.87;0.70;;;;;;;12.15;99.85;101231.50;5024091;28;20845;-70
2023/10/09 09:27:52;;;;;;;0.80;0.40;;;;;;;12.45;98.37;101221.94;5028626;28;20492;-71
2023/10/09 09:30:25;;;;;;;0.80;0.40;;;;;;;12.57;96.38;101228.44;5028468;28;20535;-70
2023/10/09 09:35:39;;;;;;;0.80;0.40;;;;;;;12.42;97.33;101229.66;5030638;28;20438;-69
2023/10/09 09:38:17;;;;;;;0.80;0.50;;;;;;;12.63;97.37;101219.44;5025025;28;20776;-69
2023/10/09 09:40:53;;;;;;;0.80;0.40;;;;;;;12.91;93.66;101229.28;5024767;28;20820;-67
2023/10/09 09:43:25;;;;;;;0.80;0.40;;;;;;;12.90;94.21;101238.47;5029001;28;20434;-70
2023/10/09 09:45:56;;;;;;;0.80;0.50;;;;;;;12.67;94.53;101249.75;5095758;28;20459;-69
2023/10/09 09:48:32;;;;;;;0.80;0.50;;;;;;;12.56;95.17;101248.47;5028736;28;20848;-68
2023/10/09 09:51:05;;;;;;;0.80;0.40;;;;;;;12.46;98.06;101242.63;5029658;28;20789;-70
2023/10/09 09:53:35;;;;;;;0.80;0.50;;;;;;;12.45;96.71;101251.78;5090904;27;20439;-68
2023/10/09 09:56:05;;;;;;;0.80;0.50;;;;;;;12.40;97.32;101254.28;5026359;28;20472;-69
2023/10/09 09:58:42;;;;;;;0.80;0.50;;;;;;;12.30;98.47;101253.84;5030676;28;20499;-68
2023/10/09 10:01:22;;;;;;;0.90;0.70;;;;;;;12.25;99.00;101240.03;5028001;28;20448;-69
2023/10/09 10:03:56;;;;;;;0.80;0.50;;;;;;;12.08;98.71;101236.03;5027293;28;20998;-69
2023/10/09 10:06:29;;;;;;;0.80;0.40;;;;;;;12.18;96.42;101233.78;5028962;28;20430;-69
2023/10/09 10:08:59;;;;;;;0.80;0.50;;;;;;;12.24;97.07;101235.69;5099572;28;20414;-69
2023/10/09 10:11:45;;;;;;;0.80;0.40;;;;;;;12.17;96.68;101242.97;5031406;28;21031;-68
2023/10/09 10:14:22;;;;;;;1.37;1.27;;;;;;;12.09;96.54;101246.69;5025218;28;20473;-68
2023/10/09 10:17:16;;;;;;;0.80;0.50;;;;;;;11.98;98.52;101238.31;5027023;28;20767;-71
2023/10/09 10:20:25;;;;;;;0.80;0.40;;;;;;;12.13;98.99;101236.28;5031561;28;20443;-70
2023/10/09 10:22:52;;;;;;;0.80;0.50;;;;;;;12.16;97.82;101233.97;5026442;28;21089;-69
2023/10/09 10:25:35;;;;;;;0.80;0.40;;;;;;;11.98;99.03;101230.16;5022864;28;20658;-69
2023/10/09 10:28:28;;;;;;;0.80;0.40;;;;;;;12.13;98.78;101236.28;5031845;28;20407;-70
2023/10/09 10:31:00;;;;;;;0.80;0.40;;;;;;;12.20;100.00;101227.09;5108211;27;20436;-68
2023/10/09 10:33:49;;;;;;;0.80;0.57;;;;;;;12.44;98.63;101227.59;5044995;28;20402;-69
2023/10/09 10:36:22;;;;;;;0.80;0.50;;;;;;;12.66;95.17;101220.91;5034394;28;20440;-69
2023/10/09 10:39:08;;;;;;;0.90;0.60;;;;;;;12.58;94.72;101226.56;5026492;28;20409;-69
2023/10/09 10:41:50;;;;;;;0.80;0.40;;;;;;;12.70;95.32;101218.63;5022575;28;20429;-68
2023/10/09 10:44:37;;;;;;;0.80;0.40;;;;;;;12.82;92.93;101209.66;5026479;28;21154;-67
2023/10/09 10:47:22;;;;;;;0.80;0.50;;;;;;;13.10;94.06;101223.00;5024909;28;20428;-69
2023/10/09 10:49:57;;;;;;;0.90;0.60;;;;;;;13.09;91.02;101226.75;5030395;28;20440;-70
2023/10/09 10:52:41;;;;;;;0.80;0.40;;;;;;;12.75;92.69;101227.81;5097573;28;20446;-69
2023/10/09 10:58:34;;;;;;;0.80;0.40;;;;;;;12.84;92.81;101215.69;5031634;28;20417;-69
2023/10/09 11:01:15;;;;;;;0.80;0.50;;;;;;;12.66;94.32;101214.66;5030100;28;20409;-70
2023/10/09 11:03:56;;;;;;;1.10;0.50;;;;;;;12.58;95.44;101224.69;5030208;28;20467;-70
2023/10/09 11:06:37;;;;;;;0.90;0.60;;;;;;;12.56;94.31;101220.50;5030926;28;20478;-67
2023/10/09 11:09:20;;;;;;;0.80;0.50;;;;;;;12.83;96.69;101218.66;5031454;28;20864;-71
2023/10/09 11:11:55;;;;;;;0.80;0.47;;;;;;;12.75;95.49;101213.41;5028713;28;20479;-69
2023/10/09 11:14:24;;;;;;;0.80;0.40;;;;;;;12.53;93.30;101210.91;5032429;28;20824;-68
2023/10/09 11:16:57;;;;;;;0.80;0.57;;;;;;;12.74;93.63;101203.56;5032156;28;20428;-67
2023/10/09 11:19:32;;;;;;;0.80;0.50;;;;;;;12.68;93.65;101207.16;5028504;28;21124;-68
2023/10/09 11:25:12;;;;;;;0.80;0.57;;;;;;;12.84;95.83;101191.25;5035266;28;20475;-67
2023/10/09 11:27:50;;;;;;;0.90;0.70;;;;;;;12.81;94.01;101204.41;5028889;28;20471;-68
2023/10/09 11:30:32;;;;;;;0.80;0.40;;;;;;;12.84;94.20;101195.84;5027735;28;20413;-68
2023/10/09 11:33:05;;;;;;;0.80;0.50;;;;;;;13.27;93.12;101185.38;5035004;28;20853;-68
2023/10/09 11:35:35;;;;;;;0.90;0.60;;;;;;;13.62;92.21;101178.56;5024357;28;20447;-69
2023/10/09 11:38:20;;;;;;;0.80;0.50;;;;;;;13.77;91.19;101194.63;5036075;28;20432;-70
2023/10/09 11:41:05;;;;;;;0.80;0.40;;;;;;;14.10;87.52;101198.00;5030776;28;20927;-70
2023/10/09 11:43:53;;;;;;;0.90;0.63;;;;;;;14.52;85.22;101195.69;5028593;28;20411;-67
2023/10/09 11:46:48;;;;;;;0.80;0.50;;;;;;;15.21;80.69;101182.69;5025561;28;20475;-70
2023/10/09 11:49:32;;;;;;;0.80;0.50;;;;;;;15.31;77.86;101179.44;5024314;28;20455;-68
2023/10/09 11:54:56;;;;;;;0.80;0.40;;;;;;;14.76;81.72;101173.09;5033414;28;20807;-68
2023/10/09 11:57:31;;;;;;;0.80;0.50;;;;;;;14.50;81.26;101170.56;5033936;28;20979;-69
2023/10/09 12:00:06;;;;;;;0.80;0.50;;;;;;;14.29;81.53;101169.00;5027395;28;20415;-69
2023/10/09 12:02:43;;;;;;;0.93;0.70;;;;;;;14.17;80.50;101168.88;5029970;28;20418;-65
2023/10/09 12:05:16;;;;;;;0.80;0.40;;;;;;;14.08;82.44;101163.91;5026666;28;20513;-68
2023/10/09 12:07:46;;;;;;;0.80;0.40;;;;;;;14.21;81.13;101161.09;5027801;28;20433;-70
2023/10/09 12:10:24;;;;;;;1.63;1.53;;;;;;;14.38;81.37;101161.44;5025046;28;21005;-67
2023/10/09 12:12:53;;;;;;;0.80;0.50;;;;;;;14.04;81.74;101155.34;5036845;28;20471;-69
2023/10/09 12:15:23;;;;;;;0.90;0.73;;;;;;;13.99;83.81;101165.22;5028687;28;20511;-69
2023/10/09 12:17:53;;;;;;;0.80;0.50;;;;;;;13.95;83.05;101172.97;5037005;28;20414;-68
2023/10/09 12:20:31;;;;;;;0.80;0.50;;;;;;;13.80;82.96;101165.09;5027398;28;20855;-69
2023/10/09 12:23:00;;;;;;;0.80;0.50;;;;;;;13.97;83.33;101172.75;5026973;28;20444;-70
2023/10/09 12:25:31;;;;;;;1.80;1.70;;;;;;;13.78;83.34;101178.09;5029429;28;20480;-68
2023/10/09 12:28:01;;;;;;;0.80;0.50;;;;;;;13.62;84.95;101172.28;5027336;28;20432;-68
2023/10/09 12:30:39;;;;;;;1.23;0.60;;;;;;;13.78;83.54;101171.81;5031274;28;20489;-69
2023/10/09 12:33:09;;;;;;;1.10;1.00;;;;;;;14.06;83.46;101169.56;5027988;28;20539;-68
2023/10/09 12:35:39;;;;;;;0.80;0.50;;;;;;;14.25;83.18;101168.63;5025158;28;20437;-69
2023/10/09 12:38:12;;;;;;;0.80;0.40;;;;;;;14.31;84.58;101169.63;5030166;28;20409;-69
2023/10/09 12:40:50;;;;;;;0.80;0.50;;;;;;;14.12;83.70;101174.16;5031305;28;20473;-68
2023/10/09 12:43:21;;;;;;;0.90;0.70;;;;;;;14.07;85.04;101160.34;5025120;28;20441;-70
2023/10/09 12:45:56;;;;;;;0.80;0.40;;;;;;;14.30;83.56;101168.78;5030642;28;20957;-69
2023/10/09 12:48:25;;;;;;;0.90;0.50;;;;;;;14.14;83.99;101154.84;5029829;28;20924;-69
2023/10/09 12:50:54;;;;;;;0.80;0.40;;;;;;;13.97;85.13;101159.16;5026128;28;21648;-68
2023/10/09 12:53:28;;;;;;;1.47;0.60;;;;;;;14.01;83.88;101163.09;5106334;27;20437;-69
2023/10/09 12:56:00;;;;;;;0.80;0.50;;;;;;;14.01;84.29;101163.94;5027363;28;20802;-69
2023/10/09 12:58:29;;;;;;;0.80;0.50;;;;;;;14.07;83.23;101165.81;5029090;28;20424;-69
2023/10/09 13:01:09;;;;;;;0.90;0.60;;;;;;;13.91;84.69;101163.59;5028987;28;20415;-67
2023/10/09 13:03:38;;;;;;;0.80;0.40;;;;;;;13.80;85.96;101164.25;5028688;28;21195;-71
2023/10/09 13:06:10;;;;;;;0.80;0.43;;;;;;;13.73;86.25;101163.47;5097357;28;20435;-69
2023/10/09 13:08:40;;;;;;;0.80;0.50;;;;;;;13.51;87.99;101153.94;5097056;28;20427;-69
2023/10/09 13:11:11;;;;;;;0.80;0.50;;;;;;;13.47;89.21;101148.09;5026528;28;20559;-69
2023/10/09 13:13:43;;;;;;;0.80;0.40;;;;;;;13.60;91.21;101141.78;5027010;28;20929;-69
2023/10/09 13:16:22;;;;;;;0.80;0.50;;;;;;;13.63;88.70;101146.78;5087285;27;20486;-67
2023/10/09 13:18:52;;;;;;;1.17;0.87;;;;;;;13.51;88.56;101148.50;5026585;28;20430;-67
2023/10/09 13:21:23;;;;;;;0.80;0.50;;;;;;;13.55;89.42;101153.31;5031890;28;20418;-69
2023/10/09 13:23:54;;;;;;;0.80;0.50;;;;;;;13.78;88.02;101160.94;5029588;28;20437;-68
2023/10/09 13:26:29;;;;;;;0.80;0.50;;;;;;;13.68;89.28;101166.84;5030961;28;20439;-71